Time;durP1;ratioP1;P1;durP2;ratioP2;P2;SDS_P1;SDS_P2;PMS_P1;PMS_P2;Temp;Humidity;BMP_temperature;BMP_pressure;BME280_temperature;BME280_humidity;BME280_pressure;Samples;Min_cycle;Max_cycle;Signal;HPM_P1;HPM_P2
2023/12/06 00:02:05;;;;;;;10.13;5.25;;;;;;;4.76;67.33;94616.59;5068130;28;20035;-77
2023/12/06 00:04:31;;;;;;;7.60;4.53;;;;;;;4.78;67.23;94617.69;5071054;28;20062;-77
2023/12/06 00:06:56;;;;;;;8.63;4.47;;;;;;;4.84;66.96;94618.03;5072189;28;20025;-79
2023/12/06 00:09:22;;;;;;;7.85;5.20;;;;;;;4.66;67.24;94614.75;5072044;28;20025;-79
2023/12/06 00:11:47;;;;;;;7.72;5.03;;;;;;;4.70;67.41;94629.88;5070043;28;20016;-78
2023/12/06 00:14:12;;;;;;;7.43;4.15;;;;;;;4.68;67.52;94626.00;5068321;28;20048;-78
2023/12/06 00:16:39;;;;;;;7.80;4.85;;;;;;;4.59;68.00;94628.41;5068582;28;20035;-78
2023/12/06 00:19:04;;;;;;;8.85;4.82;;;;;;;4.60;67.97;94624.53;5068107;28;20028;-78
2023/12/06 00:21:30;;;;;;;7.18;4.82;;;;;;;4.61;67.84;94617.91;5066080;28;20414;-78
2023/12/06 00:23:56;;;;;;;8.07;5.10;;;;;;;4.67;67.63;94617.06;5067765;28;20025;-78
2023/12/06 00:26:21;;;;;;;9.73;4.80;;;;;;;4.74;67.52;94618.91;5066192;28;20499;-77
2023/12/06 00:28:47;;;;;;;7.55;4.75;;;;;;;4.71;67.32;94609.63;5048869;28;20036;-76
2023/12/06 00:31:12;;;;;;;6.93;4.38;;;;;;;4.74;67.22;94608.03;5067158;28;20040;-76
2023/12/06 00:33:38;;;;;;;6.82;4.50;;;;;;;4.74;67.38;94602.56;5066774;28;20147;-77
2023/12/06 00:36:04;;;;;;;8.00;4.90;;;;;;;4.78;67.34;94603.31;5066106;28;20058;-76
2023/12/06 00:38:29;;;;;;;7.15;4.28;;;;;;;4.82;67.15;94603.25;5065728;28;20179;-76
2023/12/06 00:40:55;;;;;;;7.00;4.47;;;;;;;4.68;67.48;94593.31;5067122;28;20032;-76
2023/12/06 00:43:20;;;;;;;6.45;4.03;;;;;;;4.67;67.37;94595.28;5065713;28;20060;-77
2023/12/06 00:45:46;;;;;;;7.22;4.47;;;;;;;4.68;67.62;94594.09;5066764;28;20112;-78
2023/12/06 00:48:12;;;;;;;7.53;4.80;;;;;;;4.69;67.47;94603.03;5067021;28;20032;-77
2023/12/06 00:50:37;;;;;;;8.13;4.70;;;;;;;4.68;67.55;94599.53;5065045;28;20029;-76
2023/12/06 00:53:03;;;;;;;8.38;4.65;;;;;;;4.71;67.45;94603.41;5066807;28;20024;-77
2023/12/06 00:55:28;;;;;;;6.95;4.53;;;;;;;4.69;67.49;94598.34;5066481;28;20086;-76
2023/12/06 00:57:53;;;;;;;7.10;4.25;;;;;;;4.70;67.48;94582.78;5065980;28;20059;-77
2023/12/06 01:00:19;;;;;;;7.22;4.18;;;;;;;4.72;67.51;94585.88;5066570;28;20403;-76
2023/12/06 01:02:44;;;;;;;7.93;4.75;;;;;;;4.71;67.30;94584.34;5065052;28;20233;-76
2023/12/06 01:05:10;;;;;;;4.97;3.67;;;;;;;4.75;67.33;94587.78;5066871;28;20036;-77
2023/12/06 01:07:35;;;;;;;6.43;3.90;;;;;;;4.73;67.31;94590.91;5066036;28;20347;-74
2023/12/06 01:10:02;;;;;;;6.80;3.95;;;;;;;4.73;67.31;94585.47;5066671;28;20032;-76
2023/12/06 01:12:27;;;;;;;7.32;4.22;;;;;;;4.70;67.25;94580.06;5065712;28;20028;-77
2023/12/06 01:14:53;;;;;;;5.25;3.50;;;;;;;4.70;67.56;94578.13;5065160;28;20031;-77
2023/12/06 01:17:18;;;;;;;6.25;4.68;;;;;;;4.70;67.31;94578.13;5066104;28;20475;-77
2023/12/06 01:19:43;;;;;;;7.35;5.03;;;;;;;4.67;67.08;94568.03;5066365;28;20021;-76
2023/12/06 01:22:09;;;;;;;7.88;4.45;;;;;;;4.68;67.59;94568.81;5066356;28;20501;-76
2023/12/06 01:24:34;;;;;;;7.25;4.85;;;;;;;4.70;67.42;94561.00;5065561;28;20032;-78
2023/12/06 01:26:59;;;;;;;7.22;4.20;;;;;;;4.73;67.14;94555.50;5065261;28;20578;-77
2023/12/06 01:29:25;;;;;;;7.32;4.53;;;;;;;4.75;67.17;94555.09;5065447;28;20032;-78
2023/12/06 01:31:50;;;;;;;10.85;5.15;;;;;;;4.74;66.98;94553.56;5066402;28;20573;-77
2023/12/06 01:34:15;;;;;;;6.57;4.40;;;;;;;4.73;66.96;94558.25;5065261;28;20048;-77
2023/12/06 01:36:41;;;;;;;8.20;5.15;;;;;;;4.73;67.07;94552.78;5066111;28;20138;-77
2023/12/06 01:39:07;;;;;;;10.27;5.50;;;;;;;4.74;66.84;94553.56;5066197;28;20107;-77
2023/12/06 01:41:33;;;;;;;7.65;4.75;;;;;;;4.76;66.71;94554.72;5066119;28;20083;-77
2023/12/06 01:43:58;;;;;;;8.60;5.00;;;;;;;4.76;66.81;94543.81;5066312;28;20119;-77
2023/12/06 01:46:24;;;;;;;8.13;5.05;;;;;;;4.72;66.77;94539.59;5065290;28;20062;-78
2023/12/06 01:48:51;;;;;;;8.75;5.05;;;;;;;4.75;67.01;94536.03;5066129;28;20016;-76
2023/12/06 01:51:17;;;;;;;8.15;4.80;;;;;;;4.72;67.12;94540.38;5064110;28;20028;-76
2023/12/06 01:53:43;;;;;;;7.10;4.60;;;;;;;4.69;67.18;94534.94;5064739;28;20028;-77
2023/12/06 01:56:09;;;;;;;9.43;5.03;;;;;;;4.70;67.29;94528.31;5064422;28;20035;-77
2023/12/06 01:58:37;;;;;;;9.32;4.80;;;;;;;4.72;67.02;94534.16;5064087;28;20170;-76
2023/12/06 02:01:03;;;;;;;10.23;5.25;;;;;;;4.70;67.14;94528.31;5064687;28;20074;-77
2023/12/06 02:03:29;;;;;;;7.93;4.82;;;;;;;4.73;66.96;94514.66;5065173;28;20035;-77
2023/12/06 02:05:54;;;;;;;10.45;5.30;;;;;;;4.70;67.02;94520.94;5064543;28;20033;-77
2023/12/06 02:08:20;;;;;;;8.32;6.03;;;;;;;4.71;67.05;94517.03;5063866;28;20016;-77
2023/12/06 02:10:45;;;;;;;8.02;5.20;;;;;;;4.73;66.81;94516.63;5065818;28;20372;-77
2023/12/06 02:13:11;;;;;;;8.95;5.95;;;;;;;4.73;66.73;94522.84;5063454;28;20173;-77
2023/12/06 02:15:36;;;;;;;10.20;5.28;;;;;;;4.74;66.81;94516.22;5063682;28;20040;-78
2023/12/06 02:18:03;;;;;;;9.43;5.88;;;;;;;4.76;66.68;94513.09;5064517;28;20052;-78
2023/12/06 02:20:29;;;;;;;8.35;4.90;;;;;;;4.78;66.87;94516.94;5047318;28;20047;-77
2023/12/06 02:22:57;;;;;;;6.50;3.88;;;;;;;4.78;66.77;94513.44;5065420;28;20036;-78
2023/12/06 02:25:22;;;;;;;7.43;4.32;;;;;;;4.79;66.95;94510.31;5069113;28;20139;-78
2023/12/06 02:27:48;;;;;;;9.05;4.22;;;;;;;4.79;67.11;94506.81;5069946;28;20024;-78
2023/12/06 02:30:13;;;;;;;6.60;4.30;;;;;;;4.80;67.01;94514.56;5069217;28;20092;-78
2023/12/06 02:32:39;;;;;;;7.68;4.43;;;;;;;4.82;66.98;94503.28;5069777;28;20020;-78
2023/12/06 02:35:40;;;;;;;8.43;4.63;;;;;;;4.85;67.15;94505.19;5051333;28;20514;-78
2023/12/06 02:38:05;;;;;;;7.28;4.28;;;;;;;4.87;67.08;94504.75;5013081;28;20504;-77
2023/12/06 02:40:31;;;;;;;8.07;4.25;;;;;;;4.88;67.08;94504.38;5030113;28;20094;-78
2023/12/06 02:42:58;;;;;;;8.32;5.15;;;;;;;4.87;67.21;94500.06;5029788;28;20470;-77
2023/12/06 02:45:24;;;;;;;6.40;4.40;;;;;;;4.87;67.24;94491.91;5046770;28;20510;-77
2023/12/06 02:47:49;;;;;;;7.32;4.63;;;;;;;4.92;67.24;94493.41;5029912;28;20044;-77
2023/12/06 02:50:16;;;;;;;8.65;5.15;;;;;;;4.95;67.37;94493.38;5046594;28;20044;-77
2023/12/06 02:52:42;;;;;;;7.32;4.80;;;;;;;4.94;67.43;94489.09;5046798;28;20566;-77
2023/12/06 02:55:07;;;;;;;9.63;4.85;;;;;;;4.89;67.64;94473.22;5046492;28;20127;-77
2023/12/06 02:57:33;;;;;;;8.55;4.97;;;;;;;4.94;67.58;94483.66;5046417;28;20093;-77
2023/12/06 02:59:58;;;;;;;8.13;4.63;;;;;;;4.98;67.75;94481.63;5046104;28;20045;-78
2023/12/06 03:02:23;;;;;;;8.10;4.68;;;;;;;5.00;67.80;94483.97;5046690;28;20078;-76
2023/12/06 03:04:49;;;;;;;7.55;4.72;;;;;;;5.03;67.74;94480.41;5046083;28;20063;-76
2023/12/06 03:07:14;;;;;;;8.50;5.15;;;;;;;5.03;67.80;94485.84;5029826;28;20041;-76
2023/12/06 03:09:39;;;;;;;7.85;5.22;;;;;;;5.04;67.91;94476.50;5046338;28;20056;-77
2023/12/06 03:12:07;;;;;;;9.25;4.50;;;;;;;5.02;67.87;94473.41;5046484;28;20438;-78
2023/12/06 03:14:32;;;;;;;8.95;4.88;;;;;;;5.06;67.92;94477.63;5062544;28;20048;-76
2023/12/06 03:16:58;;;;;;;6.45;4.15;;;;;;;5.02;68.01;94471.47;5066929;28;20526;-78
2023/12/06 03:19:23;;;;;;;8.27;4.50;;;;;;;5.05;68.00;94470.66;5068648;28;20105;-76
2023/12/06 03:21:48;;;;;;;6.53;4.25;;;;;;;5.02;67.96;94457.06;5068079;28;20543;-76
2023/12/06 03:24:14;;;;;;;6.43;4.70;;;;;;;5.04;67.87;94463.63;5068740;28;20520;-76
2023/12/06 03:26:39;;;;;;;7.07;4.43;;;;;;;5.10;68.03;94468.63;5067824;28;20024;-76
2023/12/06 03:29:04;;;;;;;7.68;5.07;;;;;;;5.09;67.96;94454.22;5068909;28;20081;-77
2023/12/06 03:31:30;;;;;;;10.63;4.70;;;;;;;5.14;67.85;94455.72;5068078;28;20047;-77
2023/12/06 03:33:55;;;;;;;8.68;4.75;;;;;;;5.14;67.93;94455.72;5066094;28;20527;-77
2023/12/06 03:36:21;;;;;;;8.68;4.80;;;;;;;5.14;67.86;94456.50;5068215;28;20025;-77
2023/12/06 03:38:47;;;;;;;6.72;4.40;;;;;;;5.17;67.79;94463.84;5067769;28;20047;-77
2023/12/06 03:41:12;;;;;;;7.45;4.47;;;;;;;5.11;67.82;94448.38;5068325;28;20052;-77
2023/12/06 03:43:37;;;;;;;7.78;4.97;;;;;;;5.17;67.68;94463.09;5067507;28;20017;-77
2023/12/06 03:46:03;;;;;;;7.15;5.00;;;;;;;5.14;67.73;94459.22;5050440;28;20051;-78
2023/12/06 03:48:29;;;;;;;8.45;3.83;;;;;;;5.18;67.60;94465.38;5066672;28;20371;-77
2023/12/06 03:50:55;;;;;;;9.48;4.63;;;;;;;5.17;67.70;94463.09;5066694;28;20117;-78
2023/12/06 03:53:20;;;;;;;7.57;3.92;;;;;;;5.23;67.39;94466.88;5067058;28;20071;-79
2023/12/06 03:55:45;;;;;;;6.82;4.32;;;;;;;5.23;67.51;94464.91;5067611;28;20111;-77
2023/12/06 03:58:11;;;;;;;8.23;4.25;;;;;;;5.23;67.52;94467.66;5068408;28;20024;-78
2023/12/06 04:00:36;;;;;;;6.82;4.38;;;;;;;5.22;67.40;94470.78;5067257;28;20056;-78
2023/12/06 04:03:03;;;;;;;8.88;5.07;;;;;;;5.25;67.56;94469.94;5066947;28;20479;-77
2023/12/06 04:05:28;;;;;;;6.57;4.35;;;;;;;5.20;67.48;94456.78;5066031;28;20048;-77
2023/12/06 04:07:54;;;;;;;7.28;4.32;;;;;;;5.22;67.58;94463.38;5067879;28;20032;-77
2023/12/06 04:10:19;;;;;;;7.15;4.70;;;;;;;5.17;67.75;94458.41;5067731;28;20372;-77
2023/12/06 04:12:44;;;;;;;7.93;4.90;;;;;;;5.19;67.74;94458.75;5066056;28;20021;-78
2023/12/06 04:15:11;;;;;;;8.23;4.90;;;;;;;5.20;67.56;94454.84;5066674;28;20044;-77
2023/12/06 04:17:36;;;;;;;9.27;4.60;;;;;;;5.22;67.53;94459.88;5066816;28;20067;-77
2023/12/06 04:20:04;;;;;;;6.82;4.15;;;;;;;5.30;67.32;94464.03;5066261;28;20048;-76
2023/12/06 04:22:29;;;;;;;7.00;4.18;;;;;;;5.26;67.35;94452.41;5066638;28;20028;-78
2023/12/06 04:24:55;;;;;;;7.47;4.47;;;;;;;5.26;67.25;94455.13;5067725;28;20401;-79
2023/12/06 04:27:20;;;;;;;6.57;4.13;;;;;;;5.23;67.18;94453.25;5067241;28;20028;-77
2023/12/06 04:29:46;;;;;;;8.38;4.75;;;;;;;5.26;67.36;94463.31;5067214;28;20380;-77
2023/12/06 04:32:11;;;;;;;5.97;4.35;;;;;;;5.33;66.81;94461.25;5067961;28;20104;-77
2023/12/06 04:34:47;;;;;;;11.23;4.30;;;;;;;5.29;67.02;94459.78;5065076;28;20068;-77
2023/12/06 04:37:12;;;;;;;7.72;4.43;;;;;;;5.31;67.02;94460.88;5066149;28;20020;-78
2023/12/06 04:39:38;;;;;;;8.98;5.25;;;;;;;5.34;66.93;94462.03;5066551;28;20024;-78
2023/12/06 04:42:03;;;;;;;9.95;6.03;;;;;;;5.32;67.11;94461.66;5067625;28;20552;-77
2023/12/06 04:44:28;;;;;;;12.90;7.35;;;;;;;5.32;67.29;94465.16;5048958;28;20025;-78
2023/12/06 04:46:54;;;;;;;12.50;6.18;;;;;;;5.36;66.96;94465.09;5066936;28;20522;-78
2023/12/06 04:49:19;;;;;;;8.40;5.75;;;;;;;5.36;67.17;94456.91;5067747;28;20021;-79
2023/12/06 04:51:45;;;;;;;8.43;5.55;;;;;;;5.36;66.95;94465.09;5066502;28;20551;-78
2023/12/06 04:54:10;;;;;;;7.50;5.43;;;;;;;5.33;67.51;94463.19;5069194;28;20029;-78
2023/12/06 04:56:35;;;;;;;9.55;6.00;;;;;;;5.41;67.23;94464.63;5071005;28;20109;-77
2023/12/06 04:59:01;;;;;;;10.02;5.78;;;;;;;5.33;67.36;94455.81;5069122;28;20032;-78
2023/12/06 05:01:26;;;;;;;8.77;5.15;;;;;;;5.40;67.57;94456.88;5069117;28;20050;-76
2023/12/06 05:03:52;;;;;;;7.45;4.75;;;;;;;5.39;67.54;94458.84;5068224;28;20467;-76
2023/12/06 05:06:17;;;;;;;8.82;5.72;;;;;;;5.44;67.39;94455.59;5067264;28;20035;-77
2023/12/06 05:08:42;;;;;;;8.23;4.90;;;;;;;5.48;67.52;94461.78;5066753;28;20032;-77
2023/12/06 05:11:08;;;;;;;11.32;5.78;;;;;;;5.47;67.35;94456.75;5067476;28;20406;-77
2023/12/06 05:13:33;;;;;;;9.00;5.55;;;;;;;5.46;67.36;94452.50;5065872;28;20094;-78
2023/12/06 05:15:58;;;;;;;8.35;5.10;;;;;;;5.52;67.22;94443.41;5066015;28;20090;-76
2023/12/06 05:18:24;;;;;;;6.45;4.25;;;;;;;5.53;67.35;94453.13;5066157;28;20029;-77
2023/12/06 05:20:49;;;;;;;7.80;4.75;;;;;;;5.53;67.29;94455.09;5066568;28;20063;-76
2023/12/06 05:23:15;;;;;;;7.78;4.60;;;;;;;5.57;67.47;94458.53;5065998;28;20028;-78
2023/12/06 05:25:40;;;;;;;9.82;5.18;;;;;;;5.53;67.83;94458.59;5065099;28;20025;-77
2023/12/06 05:28:05;;;;;;;7.75;4.70;;;;;;;5.58;67.66;94452.66;5066600;28;20032;-76
2023/12/06 05:30:31;;;;;;;7.85;4.32;;;;;;;5.66;67.33;94455.25;5066159;28;20024;-78
2023/12/06 05:32:57;;;;;;;6.05;4.38;;;;;;;5.70;67.49;94447.78;5066937;28;20103;-77
2023/12/06 05:35:22;;;;;;;7.03;4.40;;;;;;;5.61;67.37;94437.41;5065628;28;20094;-77
2023/12/06 05:37:48;;;;;;;6.85;4.15;;;;;;;5.68;67.56;94455.59;5066425;28;20025;-76
2023/12/06 05:40:13;;;;;;;7.32;4.93;;;;;;;5.63;67.76;94442.47;5066331;28;20078;-75
2023/12/06 05:42:39;;;;;;;7.32;4.70;;;;;;;5.62;67.96;94449.06;5066387;28;20510;-78
2023/12/06 05:45:05;;;;;;;7.18;5.32;;;;;;;5.63;68.20;94445.97;5065084;28;20081;-77
2023/12/06 05:47:30;;;;;;;8.15;5.13;;;;;;;5.64;68.08;94444.00;5064402;28;20111;-78
2023/12/06 05:49:55;;;;;;;6.25;4.50;;;;;;;5.57;68.30;94440.22;5066500;28;20104;-78
2023/12/06 05:52:21;;;;;;;8.35;4.40;;;;;;;5.57;68.50;94439.44;5065473;28;20035;-77
2023/12/06 05:54:46;;;;;;;8.07;5.10;;;;;;;5.67;68.27;94446.66;5066667;28;20056;-76
2023/12/06 05:57:12;;;;;;;7.68;4.95;;;;;;;5.62;68.39;94436.25;5064839;28;20032;-76
2023/12/06 05:59:37;;;;;;;6.97;4.95;;;;;;;5.64;68.57;94447.50;5065631;28;20029;-77
2023/12/06 06:02:03;;;;;;;8.45;4.57;;;;;;;5.65;68.67;94445.53;5065609;28;20282;-78
2023/12/06 06:04:28;;;;;;;8.75;4.70;;;;;;;5.63;68.76;94448.69;5065765;28;20020;-76
2023/12/06 06:06:53;;;;;;;6.90;4.75;;;;;;;5.54;68.71;94427.41;5064576;28;20060;-77
2023/12/06 06:09:20;;;;;;;10.32;4.70;;;;;;;5.65;68.78;94449.03;5065627;28;20475;-77
2023/12/06 06:11:45;;;;;;;6.45;4.40;;;;;;;5.73;68.42;94447.69;5065871;28;20048;-76
2023/12/06 06:14:11;;;;;;;7.25;4.10;;;;;;;5.73;68.55;94444.97;5063066;28;20136;-77
2023/12/06 06:16:36;;;;;;;6.75;3.95;;;;;;;5.73;68.61;94452.38;5064310;28;20021;-78
2023/12/06 06:19:02;;;;;;;6.88;3.78;;;;;;;5.71;68.60;94460.22;5065305;28;20500;-78
2023/12/06 06:21:27;;;;;;;7.15;4.47;;;;;;;5.55;69.08;94456.19;5065886;28;20020;-75
2023/12/06 06:23:53;;;;;;;6.00;4.30;;;;;;;5.47;69.44;94449.34;5065327;28;20027;-76
2023/12/06 06:26:18;;;;;;;7.70;3.92;;;;;;;5.47;69.87;94457.50;5065372;28;20090;-78
2023/12/06 06:28:43;;;;;;;8.52;4.20;;;;;;;5.38;70.56;94457.28;5065642;28;20338;-78
2023/12/06 06:31:09;;;;;;;6.72;4.07;;;;;;;5.31;70.67;94454.66;5065217;28;20111;-77
2023/12/06 06:33:35;;;;;;;6.47;4.20;;;;;;;5.27;71.05;94464.84;5065630;28;20178;-77
2023/12/06 06:36:00;;;;;;;7.47;4.90;;;;;;;5.21;71.68;94455.59;5065139;28;20129;-78
2023/12/06 06:38:25;;;;;;;8.88;4.57;;;;;;;5.13;71.91;94457.69;5064206;28;20038;-76
2023/12/06 06:40:51;;;;;;;6.95;4.50;;;;;;;5.22;71.63;94460.66;5063853;28;20032;-77
2023/12/06 06:43:17;;;;;;;10.23;5.45;;;;;;;5.15;71.73;94451.81;5065755;28;20043;-78
2023/12/06 06:45:43;;;;;;;6.82;4.65;;;;;;;5.17;72.09;94457.63;5065153;28;20146;-76
2023/12/06 06:48:09;;;;;;;7.97;4.78;;;;;;;5.19;72.31;94456.03;5065358;28;20029;-76
2023/12/06 06:50:35;;;;;;;9.48;5.38;;;;;;;5.29;72.22;94462.50;5066091;28;20032;-76
2023/12/06 06:53:01;;;;;;;9.30;5.10;;;;;;;5.37;72.03;94463.16;5064880;28;20029;-77
2023/12/06 06:55:26;;;;;;;7.85;5.47;;;;;;;5.42;72.13;94463.44;5065572;28;20028;-76
2023/12/06 06:57:52;;;;;;;8.60;5.63;;;;;;;5.42;71.76;94459.94;5064863;28;20445;-76
2023/12/06 07:00:17;;;;;;;10.38;5.07;;;;;;;5.51;71.80;94463.69;5065664;28;20349;-78
2023/12/06 07:02:43;;;;;;;14.65;8.65;;;;;;;5.51;71.89;94465.66;5065010;28;20033;-76
2023/12/06 07:05:12;;;;;;;13.02;7.88;;;;;;;5.57;71.92;94463.97;5065384;28;20040;-76
2023/12/06 07:07:39;;;;;;;11.88;6.85;;;;;;;5.60;71.78;94465.88;5065157;28;20162;-77
2023/12/06 07:10:05;;;;;;;9.73;6.45;;;;;;;5.63;71.44;94456.09;5067468;28;20028;-77
2023/12/06 07:12:32;;;;;;;12.77;6.65;;;;;;;5.69;71.41;94463.38;5051292;28;20509;-77
2023/12/06 07:14:58;;;;;;;12.88;8.10;;;;;;;5.70;71.36;94464.16;5068224;28;20051;-76
2023/12/06 07:17:24;;;;;;;11.48;7.65;;;;;;;5.64;71.43;94452.19;5068932;28;20039;-78
2023/12/06 07:19:49;;;;;;;13.90;8.15;;;;;;;5.76;71.27;94465.19;5066689;28;20024;-77
2023/12/06 07:22:14;;;;;;;13.90;7.70;;;;;;;5.76;71.40;94465.19;5067534;28;20016;-77
2023/12/06 07:24:40;;;;;;;10.35;7.82;;;;;;;5.84;71.16;94470.09;5067946;28;20107;-82
2023/12/06 07:27:05;;;;;;;11.50;7.82;;;;;;;5.73;71.12;94464.06;5065713;28;20055;-77
2023/12/06 07:29:30;;;;;;;11.00;6.88;;;;;;;5.73;71.02;94472.25;5068907;28;20028;-77
2023/12/06 07:31:56;;;;;;;13.57;7.22;;;;;;;5.73;71.07;94474.22;5067771;28;20025;-78
2023/12/06 07:34:22;;;;;;;12.07;7.78;;;;;;;5.79;70.92;94484.25;5068762;28;20458;-77
2023/12/06 07:36:48;;;;;;;9.73;6.70;;;;;;;5.73;71.03;94458.63;5067760;28;20020;-77
2023/12/06 07:39:16;;;;;;;12.13;6.97;;;;;;;5.82;71.04;94475.22;5067135;28;20086;-76
2023/12/06 07:41:42;;;;;;;12.63;8.43;;;;;;;5.83;70.94;94482.22;5067972;28;20059;-76
2023/12/06 07:44:07;;;;;;;13.57;8.32;;;;;;;5.81;71.15;94470.19;5068443;28;20017;-77
2023/12/06 07:46:33;;;;;;;12.57;7.60;;;;;;;5.83;71.05;94478.72;5068729;28;20514;-76
2023/12/06 07:48:58;;;;;;;11.05;7.78;;;;;;;5.77;71.35;94467.50;5067739;28;20074;-77
2023/12/06 07:51:23;;;;;;;10.27;7.20;;;;;;;5.93;70.98;94472.31;5069463;28;20024;-77
2023/12/06 07:53:51;;;;;;;11.27;6.88;;;;;;;5.96;71.23;94471.47;5065687;28;20036;-77
2023/12/06 07:56:16;;;;;;;12.65;7.35;;;;;;;6.00;70.77;94472.19;5068299;28;20125;-76
2023/12/06 07:58:41;;;;;;;10.55;7.68;;;;;;;5.93;71.12;94466.88;5067329;28;20057;-76
2023/12/06 08:01:07;;;;;;;13.70;7.60;;;;;;;6.03;70.94;94467.88;5067609;28;20033;-77
2023/12/06 08:03:32;;;;;;;8.75;6.55;;;;;;;6.10;70.48;94467.72;5067526;28;20021;-75
2023/12/06 08:05:59;;;;;;;10.45;7.47;;;;;;;6.09;70.36;94463.47;5067368;28;20070;-76
2023/12/06 08:08:28;;;;;;;13.52;6.65;;;;;;;6.04;70.50;94467.44;5068421;28;20036;-77
2023/12/06 08:10:56;;;;;;;11.82;7.15;;;;;;;6.04;70.91;94466.69;5066917;28;20035;-77
2023/12/06 08:13:24;;;;;;;10.73;6.40;;;;;;;6.11;70.44;94467.31;5068143;28;20031;-76
2023/12/06 08:15:49;;;;;;;11.75;6.82;;;;;;;6.18;70.55;94463.66;5066837;28;20633;-77
2023/12/06 08:18:14;;;;;;;9.02;6.57;;;;;;;6.05;70.25;94477.16;5066097;28;20378;-75
2023/12/06 08:20:40;;;;;;;10.27;6.40;;;;;;;6.10;70.79;94471.22;5066211;28;20120;-77
2023/12/06 08:23:05;;;;;;;12.70;6.60;;;;;;;5.98;70.83;94441.84;5067367;28;20388;-77
2023/12/06 08:25:30;;;;;;;10.13;6.60;;;;;;;6.15;70.88;94471.94;5066224;28;20021;-76
2023/12/06 08:27:56;;;;;;;9.95;5.72;;;;;;;6.19;70.63;94473.38;5066411;28;20024;-76
2023/12/06 08:30:22;;;;;;;9.98;6.03;;;;;;;6.22;70.63;94472.56;5066349;28;20180;-77
2023/12/06 08:32:48;;;;;;;9.07;6.30;;;;;;;6.24;70.65;94472.13;5066614;28;20139;-76
2023/12/06 08:35:13;;;;;;;11.32;6.22;;;;;;;6.29;70.58;94475.13;5067380;28;20504;-77
2023/12/06 08:37:40;;;;;;;10.20;6.55;;;;;;;6.25;70.60;94477.19;5065457;28;20032;-77
2023/12/06 08:40:08;;;;;;;10.68;7.20;;;;;;;6.25;70.89;94477.19;5067348;28;20028;-77
2023/12/06 08:42:34;;;;;;;12.82;7.47;;;;;;;6.27;71.02;94472.06;5065818;28;20146;-76
2023/12/06 08:44:59;;;;;;;12.18;7.30;;;;;;;6.37;70.52;94470.31;5067065;28;20112;-76
2023/12/06 08:47:25;;;;;;;13.10;7.00;;;;;;;6.41;70.39;94470.25;5067714;28;20621;-76
2023/12/06 08:49:50;;;;;;;10.30;5.97;;;;;;;6.43;70.22;94460.44;5066357;28;20035;-76
2023/12/06 08:52:15;;;;;;;9.65;6.72;;;;;;;6.33;70.46;94456.75;5067212;28;20025;-77
2023/12/06 08:54:41;;;;;;;11.52;7.15;;;;;;;6.38;70.32;94455.47;5066345;28;20028;-77
2023/12/06 08:57:06;;;;;;;12.30;7.57;;;;;;;6.42;70.58;94460.84;5067176;28;20060;-76
2023/12/06 08:59:32;;;;;;;11.40;6.53;;;;;;;6.42;70.38;94455.38;5065264;28;20024;-76
2023/12/06 09:01:57;;;;;;;11.63;7.10;;;;;;;6.36;70.51;94457.84;5066872;28;20025;-77
2023/12/06 09:04:22;;;;;;;10.82;6.90;;;;;;;6.41;70.39;94462.81;5065776;28;20388;-77
2023/12/06 09:06:48;;;;;;;13.02;8.15;;;;;;;6.48;70.53;94456.44;5066220;28;20056;-76
2023/12/06 09:09:17;;;;;;;11.23;7.65;;;;;;;6.47;70.53;94450.22;5067114;28;20483;-75
2023/12/06 09:11:45;;;;;;;11.88;6.85;;;;;;;6.48;70.43;94454.50;5064730;28;20032;-76
2023/12/06 09:14:11;;;;;;;11.18;7.55;;;;;;;6.42;70.55;94444.47;5065630;28;20036;-76
2023/12/06 09:16:36;;;;;;;9.35;6.60;;;;;;;6.45;70.46;94449.09;5066173;28;20028;-76
2023/12/06 09:19:03;;;;;;;12.88;7.45;;;;;;;6.50;70.48;94434.94;5066474;28;20020;-76
2023/12/06 09:21:45;;;;;;;11.40;6.75;;;;;;;6.42;70.89;94426.13;5066641;28;20111;-76
2023/12/06 09:24:11;;;;;;;12.43;7.50;;;;;;;6.49;70.46;94431.47;5065751;28;20425;-76
2023/12/06 09:26:40;;;;;;;13.32;6.60;;;;;;;6.47;70.55;94428.34;5065003;28;20497;-76
2023/12/06 09:29:09;;;;;;;11.90;7.38;;;;;;;6.42;71.13;94426.13;5066080;28;20062;-77
2023/12/06 09:31:35;;;;;;;10.82;6.97;;;;;;;6.45;70.98;94421.78;5066275;28;20032;-75
2023/12/06 09:34:02;;;;;;;11.70;7.35;;;;;;;6.43;71.01;94427.69;5064630;28;20052;-77
2023/12/06 09:36:28;;;;;;;13.20;8.00;;;;;;;6.58;71.00;94422.69;5065076;28;20056;-77
2023/12/06 09:38:57;;;;;;;11.35;7.45;;;;;;;6.60;70.45;94420.31;5066436;28;20032;-76
2023/12/06 09:41:28;;;;;;;12.57;7.68;;;;;;;6.68;70.29;94418.19;5067008;28;20086;-77
2023/12/06 09:43:53;;;;;;;13.73;6.75;;;;;;;6.64;70.54;94415.53;5070748;28;20028;-76
2023/12/06 09:46:19;;;;;;;11.57;7.88;;;;;;;6.71;70.78;94411.84;5070042;28;20031;-77
2023/12/06 09:48:46;;;;;;;12.23;7.80;;;;;;;6.72;70.83;94413.41;5068124;28;20268;-76
2023/12/06 09:51:12;;;;;;;10.80;7.10;;;;;;;6.77;70.45;94402.00;5065147;28;20078;-77
2023/12/06 09:53:38;;;;;;;12.32;7.53;;;;;;;6.81;70.35;94406.16;5066340;28;20024;-77
2023/12/06 09:56:04;;;;;;;10.63;7.72;;;;;;;6.83;69.79;94409.25;5066719;28;20506;-76
2023/12/06 09:58:30;;;;;;;12.25;7.57;;;;;;;6.85;70.27;94397.88;5065655;28;20035;-76
2023/12/06 10:00:57;;;;;;;9.50;6.40;;;;;;;6.90;69.68;94402.84;5066550;28;20012;-76
2023/12/06 10:03:23;;;;;;;10.35;6.70;;;;;;;6.84;69.67;94396.34;5065308;28;20048;-77
2023/12/06 10:05:58;;;;;;;10.68;6.57;;;;;;;6.95;69.49;94396.88;5065913;28;20104;-75
2023/12/06 10:08:24;;;;;;;9.85;6.95;;;;;;;6.95;68.89;94394.16;5065424;28;20102;-74
2023/12/06 10:11:00;;;;;;;9.25;6.30;;;;;;;6.86;69.49;94388.50;5064057;28;20462;-76
2023/12/06 10:13:34;;;;;;;12.45;7.60;;;;;;;6.92;69.82;94387.56;5064629;28;20033;-77
2023/12/06 10:15:59;;;;;;;11.27;6.70;;;;;;;6.99;69.58;94386.59;5047068;28;20052;-77
2023/12/06 10:18:25;;;;;;;9.52;6.07;;;;;;;6.99;69.12;94389.34;5064554;28;20525;-75
2023/12/06 10:20:50;;;;;;;9.38;6.07;;;;;;;6.98;69.45;94382.34;5063514;28;20021;-77
2023/12/06 10:23:15;;;;;;;10.60;6.15;;;;;;;7.02;69.52;94383.03;5064336;28;20494;-77
2023/12/06 10:25:41;;;;;;;9.73;6.03;;;;;;;7.01;69.01;94380.75;5065229;28;20449;-77
2023/12/06 10:28:07;;;;;;;10.48;6.47;;;;;;;6.98;69.51;94384.31;5065472;28;20093;-76
2023/12/06 10:30:33;;;;;;;9.05;5.55;;;;;;;7.01;69.67;94376.03;5064549;28;20025;-76
2023/12/06 10:32:58;;;;;;;9.50;5.90;;;;;;;7.13;68.76;94374.59;5063552;28;20103;-77
2023/12/06 10:35:27;;;;;;;9.07;6.28;;;;;;;7.11;68.82;94372.28;5064813;28;20052;-75
2023/12/06 10:37:53;;;;;;;9.57;6.43;;;;;;;7.15;68.56;94366.72;5063258;28;20029;-76
2023/12/06 10:40:23;;;;;;;9.30;6.72;;;;;;;7.11;68.80;94364.09;5064387;28;20024;-76
2023/12/06 10:42:52;;;;;;;8.77;6.30;;;;;;;7.14;68.67;94344.06;5064706;28;20104;-75
2023/12/06 10:45:19;;;;;;;7.63;5.35;;;;;;;7.15;68.41;94359.28;5066937;28;20081;-76
2023/12/06 10:47:45;;;;;;;7.93;5.25;;;;;;;7.23;68.55;94359.13;5067833;28;20020;-75
2023/12/06 10:50:11;;;;;;;7.80;5.03;;;;;;;7.18;68.50;94357.66;5067438;28;20155;-74
2023/12/06 10:52:37;;;;;;;7.38;4.55;;;;;;;7.17;68.66;94353.41;5067905;28;20482;-75
2023/12/06 10:55:03;;;;;;;7.07;5.03;;;;;;;7.12;68.30;94360.16;5050385;28;20029;-75
2023/12/06 10:57:30;;;;;;;6.05;4.68;;;;;;;7.10;68.20;94354.31;5069464;28;20085;-75
2023/12/06 11:00:00;;;;;;;11.10;5.35;;;;;;;7.11;68.46;94344.16;5067340;28;20082;-76
2023/12/06 11:02:26;;;;;;;8.48;5.53;;;;;;;7.10;68.56;94340.66;5068948;28;20111;-76
2023/12/06 11:04:55;;;;;;;7.03;4.75;;;;;;;7.14;68.47;94349.53;5067404;28;20620;-74
2023/12/06 11:07:35;;;;;;;7.75;5.00;;;;;;;7.18;67.91;94355.69;5050560;28;20025;-76
2023/12/06 11:10:12;;;;;;;8.63;5.00;;;;;;;7.18;68.01;94346.75;5069188;28;20434;-76
2023/12/06 11:13:05;;;;;;;7.75;4.82;;;;;;;7.21;67.93;94347.81;5067982;28;20531;-75
2023/12/06 11:15:38;;;;;;;7.65;5.20;;;;;;;7.16;68.16;94352.59;5068729;28;20100;-75
2023/12/06 11:18:06;;;;;;;8.43;5.00;;;;;;;7.18;68.46;94352.19;5068718;28;20101;-75
2023/12/06 11:20:31;;;;;;;6.93;4.32;;;;;;;7.21;68.44;94350.56;5066563;28;20032;-75
2023/12/06 11:22:56;;;;;;;6.40;3.63;;;;;;;7.18;68.06;94347.50;5067644;28;20039;-75
2023/12/06 11:25:22;;;;;;;6.45;4.07;;;;;;;7.15;67.91;94345.63;5067832;28;20020;-75
2023/12/06 11:27:48;;;;;;;6.20;4.05;;;;;;;7.21;67.75;94350.56;5068490;28;20032;-75
2023/12/06 11:30:17;;;;;;;7.75;4.72;;;;;;;7.28;67.52;94333.97;5066799;28;20579;-76
2023/12/06 11:32:43;;;;;;;6.75;3.95;;;;;;;7.26;67.59;94339.13;5068295;28;20063;-75
2023/12/06 11:35:08;;;;;;;6.30;4.18;;;;;;;7.24;67.37;94338.78;5068099;28;20051;-76